Time;durP1;ratioP1;P1;durP2;ratioP2;P2;SDS_P1;SDS_P2;PMS_P1;PMS_P2;Temp;Humidity;BMP_temperature;BMP_pressure;BME280_temperature;BME280_humidity;BME280_pressure;Samples;Min_cycle;Max_cycle;Signal;HPM_P1;HPM_P2
2023/09/19 00:02:21;;;;;;;10.57;3.50;;;;;;;;;;10338528;28;20065;-59
2023/09/19 00:07:21;;;;;;;8.13;3.30;;;;;;;;;;10357631;28;20383;-60
2023/09/19 00:12:22;;;;;;;10.18;3.65;;;;;;;;;;10358496;28;20022;-59
2023/09/19 00:17:22;;;;;;;6.47;3.28;;;;;;;;;;10333601;28;20034;-60
2023/09/19 00:22:25;;;;;;;8.13;3.42;;;;;;;;;;10332431;28;20055;-59
2023/09/19 00:27:26;;;;;;;6.40;2.97;;;;;;;;;;10358398;28;20022;-59
2023/09/19 00:32:32;;;;;;;8.80;3.17;;;;;;;;;;10359219;28;20421;-58
2023/09/19 00:37:32;;;;;;;7.72;3.65;;;;;;;;;;10344123;28;20087;-59
2023/09/19 00:42:33;;;;;;;11.02;3.72;;;;;;;;;;10343758;28;20080;-59
2023/09/19 00:47:34;;;;;;;7.47;3.70;;;;;;;;;;10334268;28;20053;-58
2023/09/19 00:52:39;;;;;;;10.02;3.75;;;;;;;;;;10343793;28;20497;-59
2023/09/19 00:57:40;;;;;;;4.85;3.25;;;;;;;;;;10357150;28;20053;-59
2023/09/19 01:02:43;;;;;;;7.43;3.45;;;;;;;;;;10354811;28;20392;-59
2023/09/19 01:07:48;;;;;;;5.80;3.22;;;;;;;;;;10356311;28;20037;-59
2023/09/19 01:13:21;;;;;;;6.47;3.67;;;;;;;;;;10342774;28;20030;-59
2023/09/19 01:18:55;;;;;;;12.73;3.50;;;;;;;;;;10358408;28;20030;-59
2023/09/19 01:24:27;;;;;;;6.43;3.45;;;;;;;;;;10336414;28;20029;-59
2023/09/19 01:29:39;;;;;;;7.97;3.20;;;;;;;;;;10368678;28;20030;-59
2023/09/19 01:34:50;;;;;;;9.68;4.15;;;;;;;;;;10355305;28;20034;-60
2023/09/19 01:40:20;;;;;;;9.93;3.45;;;;;;;;;;10330450;28;20034;-59
2023/09/19 01:46:23;;;;;;;10.45;3.65;;;;;;;;;;10352314;28;20052;-59
2023/09/19 01:51:57;;;;;;;10.10;3.80;;;;;;;;;;10333209;28;20038;-60
2023/09/19 01:57:15;;;;;;;10.55;3.78;;;;;;;;;;10352387;28;20381;-58
2023/09/19 02:02:17;;;;;;;9.60;3.47;;;;;;;;;;10357205;28;20547;-59
2023/09/19 02:07:18;;;;;;;11.93;4.18;;;;;;;;;;10352497;28;20017;-59
2023/09/19 02:12:18;;;;;;;10.82;4.03;;;;;;;;;;10353366;28;20381;-59
2023/09/19 02:17:19;;;;;;;18.15;3.95;;;;;;;;;;10337591;28;20033;-59
2023/09/19 02:22:19;;;;;;;7.78;3.85;;;;;;;;;;10340105;28;20018;-60
2023/09/19 02:27:20;;;;;;;10.85;3.78;;;;;;;;;;10359763;28;20323;-59
2023/09/19 02:32:21;;;;;;;10.32;4.25;;;;;;;;;;10350705;28;20450;-60
2023/09/19 02:37:21;;;;;;;5.93;3.60;;;;;;;;;;10352599;28;20037;-60
2023/09/19 02:42:22;;;;;;;12.32;4.22;;;;;;;;;;10352068;28;20069;-60
2023/09/19 02:47:22;;;;;;;9.98;3.17;;;;;;;;;;10337227;28;20053;-60
2023/09/19 02:52:24;;;;;;;7.78;3.38;;;;;;;;;;10342630;28;20092;-60
2023/09/19 02:57:25;;;;;;;10.00;3.90;;;;;;;;;;10352457;28;20386;-60
2023/09/19 03:02:27;;;;;;;8.57;3.38;;;;;;;;;;10350888;28;20034;-59
2023/09/19 03:07:28;;;;;;;5.75;3.63;;;;;;;;;;10340231;28;20030;-60
2023/09/19 03:12:29;;;;;;;10.65;4.63;;;;;;;;;;10341806;28;20037;-58
2023/09/19 03:17:29;;;;;;;11.35;3.40;;;;;;;;;;10352358;28;20034;-59
2023/09/19 03:22:30;;;;;;;6.45;3.50;;;;;;;;;;10353895;28;20019;-59
2023/09/19 03:27:30;;;;;;;14.23;4.07;;;;;;;;;;10342890;28;20546;-59
2023/09/19 03:32:31;;;;;;;10.27;3.28;;;;;;;;;;10348450;28;20065;-60
2023/09/19 03:37:34;;;;;;;8.52;3.80;;;;;;;;;;10335734;28;20025;-58
2023/09/19 03:42:38;;;;;;;6.45;3.45;;;;;;;;;;10346401;28;20037;-59
2023/09/19 03:47:40;;;;;;;12.15;3.67;;;;;;;;;;10355768;28;20049;-59
2023/09/19 03:52:41;;;;;;;9.27;4.20;;;;;;;;;;10357038;28;20034;-58
2023/09/19 03:57:41;;;;;;;6.85;3.80;;;;;;;;;;10358422;28;20121;-60
2023/09/19 04:02:42;;;;;;;8.57;3.92;;;;;;;;;;10345144;28;20045;-59
2023/09/19 04:07:43;;;;;;;11.52;4.47;;;;;;;;;;10352946;28;20026;-59
2023/09/19 04:12:53;;;;;;;12.10;4.70;;;;;;;;;;10338532;28;20025;-59
2023/09/19 04:17:54;;;;;;;9.02;3.67;;;;;;;;;;10358662;28;20669;-60
2023/09/19 04:22:54;;;;;;;10.85;4.07;;;;;;;;;;10356013;28;20177;-59
2023/09/19 04:27:55;;;;;;;7.43;3.55;;;;;;;;;;10357809;28;20483;-59
2023/09/19 04:32:56;;;;;;;7.78;3.63;;;;;;;;;;10346356;28;20034;-59
2023/09/19 04:37:56;;;;;;;11.82;4.20;;;;;;;;;;10355747;28;20045;-58
2023/09/19 04:42:57;;;;;;;13.73;4.22;;;;;;;;;;10356400;28;20025;-58
2023/09/19 04:47:57;;;;;;;9.48;3.63;;;;;;;;;;10344230;28;20050;-59
2023/09/19 04:52:59;;;;;;;9.82;3.50;;;;;;;;;;10370018;28;20600;-58
2023/09/19 04:57:59;;;;;;;12.95;4.03;;;;;;;;;;10359389;28;20288;-59
2023/09/19 05:03:00;;;;;;;11.63;4.05;;;;;;;;;;10336267;28;20281;-59
2023/09/19 05:08:05;;;;;;;12.70;4.30;;;;;;;;;;10359575;28;20033;-58
2023/09/19 05:13:07;;;;;;;9.57;3.80;;;;;;;;;;10366312;28;20225;-59
2023/09/19 05:18:07;;;;;;;10.35;4.10;;;;;;;;;;10355982;28;20030;-59
2023/09/19 05:23:11;;;;;;;11.70;4.25;;;;;;;;;;10347031;28;20027;-59
2023/09/19 05:28:15;;;;;;;12.00;3.40;;;;;;;;;;10343189;28;20049;-60
2023/09/19 05:33:18;;;;;;;8.13;3.28;;;;;;;;;;10350542;28;20026;-60
2023/09/19 05:38:19;;;;;;;13.00;3.42;;;;;;;;;;10346018;28;20061;-60
2023/09/19 05:43:19;;;;;;;12.55;3.17;;;;;;;;;;10343440;28;20061;-60
2023/09/19 05:48:20;;;;;;;8.70;3.15;;;;;;;;;;10356301;28;20466;-59
2023/09/19 05:53:23;;;;;;;14.05;3.53;;;;;;;;;;10357782;28;20037;-60
2023/09/19 05:58:23;;;;;;;14.52;3.38;;;;;;;;;;10347780;28;20033;-61
2023/09/19 06:03:24;;;;;;;10.48;2.95;;;;;;;;;;10366166;28;20029;-61
2023/09/19 06:08:25;;;;;;;12.25;3.22;;;;;;;;;;10342025;28;20478;-61
2023/09/19 06:13:33;;;;;;;9.57;2.97;;;;;;;;;;10351725;28;20198;-60
2023/09/19 06:18:34;;;;;;;7.55;3.17;;;;;;;;;;10352226;28;20026;-60
2023/09/19 06:23:35;;;;;;;5.90;2.80;;;;;;;;;;10335201;28;20048;-61
2023/09/19 06:28:35;;;;;;;9.63;2.65;;;;;;;;;;10347110;28;20034;-61
2023/09/19 06:33:40;;;;;;;18.15;3.45;;;;;;;;;;10358295;28;20436;-61
2023/09/19 06:38:41;;;;;;;5.28;2.63;;;;;;;;;;10364137;28;20049;-61
2023/09/19 06:43:41;;;;;;;5.85;3.17;;;;;;;;;;10348298;28;20022;-60
2023/09/19 06:48:44;;;;;;;7.00;2.45;;;;;;;;;;10340887;28;20513;-60
2023/09/19 06:53:44;;;;;;;10.75;2.83;;;;;;;;;;10328815;28;20074;-61
2023/09/19 06:58:45;;;;;;;7.45;2.92;;;;;;;;;;10354397;28;20041;-60
2023/09/19 07:03:46;;;;;;;6.38;2.90;;;;;;;;;;10350262;28;20478;-60
2023/09/19 07:08:46;;;;;;;4.57;2.75;;;;;;;;;;10359939;28;20478;-60
2023/09/19 07:13:47;;;;;;;8.32;3.28;;;;;;;;;;10352316;28;20265;-61
2023/09/19 07:18:47;;;;;;;4.88;2.58;;;;;;;;;;10352682;28;20026;-61
2023/09/19 07:23:49;;;;;;;8.15;2.95;;;;;;;;;;10342709;28;20026;-60
2023/09/19 07:28:50;;;;;;;7.30;3.38;;;;;;;;;;10359060;28;20501;-60
2023/09/19 07:33:50;;;;;;;5.32;3.15;;;;;;;;;;10362983;28;20033;-60
2023/09/19 07:38:51;;;;;;;10.15;3.28;;;;;;;;;;10350365;28;20026;-60
2023/09/19 07:43:52;;;;;;;4.95;2.83;;;;;;;;;;10357135;28;20038;-60
2023/09/19 07:48:52;;;;;;;5.55;2.78;;;;;;;;;;10343343;28;20398;-61
2023/09/19 07:53:54;;;;;;;6.10;3.10;;;;;;;;;;10338165;28;20416;-61
2023/09/19 07:58:57;;;;;;;6.22;3.10;;;;;;;;;;10361014;28;20026;-60
2023/09/19 08:03:58;;;;;;;8.65;3.10;;;;;;;;;;10353425;28;20056;-60
2023/09/19 08:09:00;;;;;;;13.52;3.60;;;;;;;;;;10349499;28;20177;-60
2023/09/19 08:14:01;;;;;;;11.85;3.60;;;;;;;;;;10353037;28;20458;-61
2023/09/19 08:19:02;;;;;;;9.02;3.42;;;;;;;;;;10334948;28;20027;-61
2023/09/19 08:24:04;;;;;;;8.63;3.28;;;;;;;;;;10346717;28;20030;-60
2023/09/19 08:29:07;;;;;;;10.32;3.45;;;;;;;;;;10368968;28;20033;-60
2023/09/19 08:34:07;;;;;;;8.65;3.63;;;;;;;;;;10360752;28;20034;-60
2023/09/19 08:39:08;;;;;;;11.50;3.90;;;;;;;;;;10353489;28;20030;-61
2023/09/19 08:44:10;;;;;;;7.40;3.50;;;;;;;;;;10356912;28;20029;-61
2023/09/19 08:50:20;;;;;;;8.43;3.72;;;;;;;;;;10356250;28;20046;-61
2023/09/19 08:55:33;;;;;;;8.40;3.38;;;;;;;;;;10381699;28;20048;-61
2023/09/19 09:00:36;;;;;;;10.65;4.18;;;;;;;;;;10404783;28;20292;-60
2023/09/19 09:05:36;;;;;;;14.45;4.38;;;;;;;;;;10387466;28;20049;-60
2023/09/19 09:10:38;;;;;;;8.73;3.67;;;;;;;;;;10386696;28;20049;-60
2023/09/19 09:15:40;;;;;;;11.07;3.55;;;;;;;;;;10403153;28;20033;-60
2023/09/19 09:20:41;;;;;;;8.98;4.32;;;;;;;;;;10387096;28;20033;-61
2023/09/19 09:25:54;;;;;;;11.07;3.92;;;;;;;;;;10371488;28;20543;-60
2023/09/19 09:30:56;;;;;;;10.38;3.65;;;;;;;;;;10331617;28;20031;-61
2023/09/19 09:36:02;;;;;;;5.45;3.42;;;;;;;;;;10352561;28;20253;-60
2023/09/19 09:41:06;;;;;;;9.93;3.78;;;;;;;;;;10343865;28;20053;-61
2023/09/19 09:51:33;;;;;;;5.32;3.35;;;;;;;;;;10353441;28;20512;-61
2023/09/19 09:56:34;;;;;;;7.90;3.20;;;;;;;;;;10353450;28;20040;-60
2023/09/19 10:01:50;;;;;;;4.35;3.05;;;;;;;;;;10365086;28;20026;-60
2023/09/19 10:06:53;;;;;;;9.65;3.83;;;;;;;;;;10361747;28;20026;-60
2023/09/19 10:12:09;;;;;;;6.13;3.55;;;;;;;;;;10366080;28;20041;-60
2023/09/19 10:17:20;;;;;;;8.07;3.92;;;;;;;;;;10353543;28;20034;-61
2023/09/19 10:22:22;;;;;;;12.25;3.85;;;;;;;;;;10341325;28;20038;-60
2023/09/19 10:27:26;;;;;;;4.82;3.03;;;;;;;;;;10352465;28;20026;-61
2023/09/19 10:32:33;;;;;;;5.00;3.75;;;;;;;;;;10348845;28;20034;-61
2023/09/19 10:37:37;;;;;;;8.65;3.10;;;;;;;;;;10363538;28;20037;-60
2023/09/19 10:42:41;;;;;;;6.38;3.70;;;;;;;;;;10339579;28;20044;-61
2023/09/19 10:47:42;;;;;;;11.52;3.97;;;;;;;;;;10362625;28;20045;-60
2023/09/19 10:52:43;;;;;;;12.05;3.70;;;;;;;;;;10364247;28;20371;-60
2023/09/19 10:57:46;;;;;;;4.07;3.13;;;;;;;;;;10351909;28;20026;-61
2023/09/19 11:03:18;;;;;;;3.95;3.15;;;;;;;;;;10342984;28;20103;-60
2023/09/19 11:08:19;;;;;;;4.93;3.00;;;;;;;;;;10356918;28;20026;-60
2023/09/19 11:13:34;;;;;;;7.68;3.38;;;;;;;;;;10346348;28;20413;-61
2023/09/19 11:18:41;;;;;;;4.97;3.65;;;;;;;;;;10349573;28;20022;-61
2023/09/19 11:23:41;;;;;;;7.28;3.55;;;;;;;;;;10342520;28;20473;-60
2023/09/19 11:28:42;;;;;;;7.32;3.30;;;;;;;;;;10363006;28;20026;-60
2023/09/19 11:33:46;;;;;;;7.68;3.78;;;;;;;;;;10350979;28;20033;-60
2023/09/19 11:38:49;;;;;;;9.23;3.50;;;;;;;;;;10347748;28;20038;-60
2023/09/19 11:43:54;;;;;;;6.60;3.25;;;;;;;;;;10337594;28;20032;-60
2023/09/19 11:49:06;;;;;;;4.97;3.25;;;;;;;;;;10349548;28;20047;-61
2023/09/19 11:54:18;;;;;;;7.47;3.45;;;;;;;;;;10352779;28;20080;-60
2023/09/19 11:59:28;;;;;;;5.07;3.42;;;;;;;;;;10339051;28;20419;-61
2023/09/19 12:04:37;;;;;;;7.07;3.42;;;;;;;;;;10363591;28;20029;-61
2023/09/19 12:09:49;;;;;;;8.07;3.63;;;;;;;;;;10358376;28;20080;-60
2023/09/19 12:14:50;;;;;;;6.53;3.60;;;;;;;;;;10351268;28;20033;-60
2023/09/19 12:19:56;;;;;;;6.05;3.42;;;;;;;;;;10356645;28;20390;-61
2023/09/19 12:25:07;;;;;;;8.23;3.78;;;;;;;;;;10350206;28;20344;-61
2023/09/19 12:30:09;;;;;;;6.28;3.30;;;;;;;;;;10360241;28;20040;-61
2023/09/19 12:35:11;;;;;;;6.15;3.72;;;;;;;;;;10353012;28;20393;-60
2023/09/19 12:40:18;;;;;;;6.25;3.10;;;;;;;;;;10336672;28;20121;-61
2023/09/19 12:45:19;;;;;;;7.20;3.40;;;;;;;;;;10335328;28;20043;-61
2023/09/19 12:50:25;;;;;;;5.68;2.95;;;;;;;;;;10344152;28;20038;-61
2023/09/19 12:55:32;;;;;;;11.07;3.40;;;;;;;;;;10347620;28;20471;-60
2023/09/19 13:00:46;;;;;;;3.90;3.35;;;;;;;;;;10352785;28;20026;-60
2023/09/19 13:05:51;;;;;;;6.22;3.30;;;;;;;;;;10344712;28;20030;-61
2023/09/19 13:11:17;;;;;;;6.57;3.83;;;;;;;;;;10346637;28;20030;-60
2023/09/19 13:16:25;;;;;;;7.03;3.13;;;;;;;;;;10345720;28;20046;-61
2023/09/19 13:21:45;;;;;;;7.00;3.20;;;;;;;;;;10341156;28;20065;-60
2023/09/19 13:26:45;;;;;;;9.65;3.25;;;;;;;;;;10351621;28;20456;-61
2023/09/19 13:31:52;;;;;;;4.38;3.30;;;;;;;;;;10345680;28;20382;-61
2023/09/19 13:36:54;;;;;;;8.88;3.60;;;;;;;;;;10346105;28;20494;-61
2023/09/19 13:41:54;;;;;;;7.25;3.47;;;;;;;;;;10336551;28;20031;-60
2023/09/19 13:46:56;;;;;;;5.80;3.35;;;;;;;;;;10335436;28;20054;-61
2023/09/19 13:51:58;;;;;;;12.25;3.38;;;;;;;;;;10333826;28;20041;-60
2023/09/19 13:56:58;;;;;;;10.23;3.47;;;;;;;;;;10345735;28;20041;-60
2023/09/19 14:01:59;;;;;;;9.45;3.65;;;;;;;;;;10353603;28;20389;-60
2023/09/19 14:07:03;;;;;;;7.65;3.35;;;;;;;;;;10348758;28;20037;-61
2023/09/19 14:12:04;;;;;;;7.93;3.58;;;;;;;;;;10334296;28;20484;-61
2023/09/19 14:17:06;;;;;;;7.40;3.05;;;;;;;;;;10332996;28;20034;-61
2023/09/19 14:22:07;;;;;;;6.82;3.47;;;;;;;;;;10342052;28;20486;-60
2023/09/19 14:27:09;;;;;;;9.45;3.20;;;;;;;;;;10360247;28;20025;-61
2023/09/19 14:32:09;;;;;;;5.35;3.22;;;;;;;;;;10345809;28;20022;-60
2023/09/19 14:37:11;;;;;;;5.30;3.20;;;;;;;;;;10353808;28;20033;-60
2023/09/19 14:42:12;;;;;;;6.55;3.90;;;;;;;;;;10340502;28;20034;-61
2023/09/19 14:47:13;;;;;;;3.95;2.90;;;;;;;;;;10345316;28;20436;-61
2023/09/19 14:52:15;;;;;;;7.15;3.10;;;;;;;;;;10363531;28;20065;-61
2023/09/19 14:57:16;;;;;;;10.02;3.40;;;;;;;;;;10363634;28;20022;-60
2023/09/19 15:02:16;;;;;;;6.65;3.10;;;;;;;;;;10351207;28;20038;-61
2023/09/19 15:07:17;;;;;;;5.30;3.40;;;;;;;;;;10350386;28;20058;-60
2023/09/19 15:12:18;;;;;;;9.40;3.38;;;;;;;;;;10344342;28;20056;-61
2023/09/19 15:17:19;;;;;;;5.90;3.20;;;;;;;;;;10345727;28;20018;-60
2023/09/19 15:22:20;;;;;;;9.23;3.50;;;;;;;;;;10342582;28;20029;-60
2023/09/19 15:27:21;;;;;;;5.63;3.10;;;;;;;;;;10369596;28;20080;-60
2023/09/19 15:32:21;;;;;;;4.55;3.08;;;;;;;;;;10371072;28;20076;-60
2023/09/19 15:37:22;;;;;;;6.45;2.90;;;;;;;;;;10364120;28;20041;-60
2023/09/19 15:42:23;;;;;;;6.80;2.97;;;;;;;;;;10354641;28;20488;-60
2023/09/19 15:47:23;;;;;;;7.32;3.33;;;;;;;;;;10358623;28;20053;-60
2023/09/19 15:52:26;;;;;;;9.00;3.85;;;;;;;;;;10358793;28;20037;-61
2023/09/19 15:57:28;;;;;;;8.45;3.63;;;;;;;;;;10341291;28;20455;-61
2023/09/19 16:02:28;;;;;;;10.73;3.55;;;;;;;;;;10346385;28;20065;-61
2023/09/19 16:07:29;;;;;;;7.03;3.25;;;;;;;;;;10349246;28;20022;-60
2023/09/19 16:12:31;;;;;;;9.68;4.20;;;;;;;;;;10345783;28;20033;-60
2023/09/19 16:17:31;;;;;;;7.50;3.40;;;;;;;;;;10369099;28;20026;-60
2023/09/19 16:22:32;;;;;;;7.90;3.42;;;;;;;;;;10359224;28;20035;-61
2023/09/19 16:27:32;;;;;;;9.35;3.67;;;;;;;;;;10367978;28;20060;-61
2023/09/19 16:32:33;;;;;;;9.82;3.40;;;;;;;;;;10355690;28;20029;-60
2023/09/19 16:37:33;;;;;;;7.80;3.35;;;;;;;;;;10347957;28;20367;-61
2023/09/19 16:42:34;;;;;;;6.57;3.17;;;;;;;;;;10363859;28;20401;-61
2023/09/19 16:47:35;;;;;;;5.95;3.40;;;;;;;;;;10348452;28;20379;-60
2023/09/19 16:52:35;;;;;;;7.88;3.60;;;;;;;;;;10342992;28;20378;-60
2023/09/19 16:57:36;;;;;;;6.07;3.35;;;;;;;;;;10339224;28;20429;-60
2023/09/19 17:02:36;;;;;;;6.65;3.45;;;;;;;;;;10340262;28;20104;-60
2023/09/19 17:07:38;;;;;;;10.13;3.95;;;;;;;;;;10343270;28;20014;-60
2023/09/19 17:12:39;;;;;;;10.40;3.42;;;;;;;;;;10335147;28;20505;-61
2023/09/19 17:17:39;;;;;;;9.02;3.60;;;;;;;;;;10341655;28;20041;-60
2023/09/19 17:22:40;;;;;;;8.95;4.07;;;;;;;;;;10351175;28;20026;-61
2023/09/19 17:27:40;;;;;;;7.72;3.45;;;;;;;;;;10356283;28;20500;-60
2023/09/19 17:32:45;;;;;;;8.80;3.50;;;;;;;;;;10354197;28;20037;-60
2023/09/19 17:37:45;;;;;;;12.55;3.30;;;;;;;;;;10343833;28;20061;-60
2023/09/19 17:42:46;;;;;;;8.68;3.63;;;;;;;;;;10344819;28;20034;-61
2023/09/19 17:47:46;;;;;;;10.88;3.00;;;;;;;;;;10339099;28;20101;-61
2023/09/19 17:52:49;;;;;;;8.48;2.97;;;;;;;;;;10333311;28;20509;-60
2023/09/19 17:57:50;;;;;;;9.10;3.00;;;;;;;;;;10349958;28;20448;-61
2023/09/19 18:02:50;;;;;;;6.40;3.33;;;;;;;;;;10334281;28;20027;-60
2023/09/19 18:07:52;;;;;;;8.55;3.28;;;;;;;;;;10347983;28;20022;-61
2023/09/19 18:12:53;;;;;;;5.93;3.33;;;;;;;;;;10360226;28;20042;-61
2023/09/19 18:17:53;;;;;;;4.95;3.00;;;;;;;;;;10329382;28;20053;-61
2023/09/19 18:22:55;;;;;;;8.27;3.00;;;;;;;;;;10332810;28;20026;-61
2023/09/19 18:27:55;;;;;;;4.55;2.85;;;;;;;;;;10352894;28;20034;-61
2023/09/19 18:32:56;;;;;;;8.27;2.65;;;;;;;;;;10354517;28;20044;-60
2023/09/19 18:37:57;;;;;;;9.25;3.10;;;;;;;;;;10352009;28;20026;-62
2023/09/19 18:42:57;;;;;;;6.43;2.72;;;;;;;;;;10330445;28;20033;-61
2023/09/19 18:47:59;;;;;;;6.47;2.90;;;;;;;;;;10349373;28;20045;-61
2023/09/19 18:53:00;;;;;;;5.45;2.70;;;;;;;;;;10352029;28;20026;-61
2023/09/19 18:58:00;;;;;;;4.43;2.88;;;;;;;;;;10362570;28;20030;-60
2023/09/19 19:03:01;;;;;;;7.60;2.85;;;;;;;;;;10365068;28;20374;-60
2023/09/19 19:08:01;;;;;;;7.75;3.20;;;;;;;;;;10356015;28;20382;-60
2023/09/19 19:13:02;;;;;;;3.63;2.40;;;;;;;;;;10349554;28;20565;-60
2023/09/19 19:18:04;;;;;;;4.72;2.78;;;;;;;;;;10349987;28;20034;-60
2023/09/19 19:23:06;;;;;;;6.20;2.40;;;;;;;;;;10337237;28;20031;-60
2023/09/19 19:28:08;;;;;;;5.95;2.70;;;;;;;;;;10351844;28;20485;-61
2023/09/19 19:33:10;;;;;;;6.47;3.47;;;;;;;;;;10340320;28;20030;-61
2023/09/19 19:38:11;;;;;;;4.72;2.70;;;;;;;;;;10362999;28;20034;-62
2023/09/19 19:43:11;;;;;;;6.80;2.90;;;;;;;;;;10360749;28;20030;-61
2023/09/19 19:48:12;;;;;;;6.63;2.83;;;;;;;;;;10363334;28;20042;-61
2023/09/19 19:53:12;;;;;;;6.68;2.63;;;;;;;;;;10362661;28;20025;-60
2023/09/19 19:58:15;;;;;;;9.02;3.38;;;;;;;;;;10350468;28;20088;-60
2023/09/19 20:03:17;;;;;;;5.13;2.53;;;;;;;;;;10342961;28;20062;-60
2023/09/19 20:08:18;;;;;;;6.22;2.78;;;;;;;;;;10352664;28;20034;-60
2023/09/19 20:13:19;;;;;;;7.22;3.08;;;;;;;;;;10362966;28;20069;-62
2023/09/19 20:18:20;;;;;;;15.85;2.88;;;;;;;;;;10347304;28;20058;-61
2023/09/19 20:23:22;;;;;;;12.43;2.85;;;;;;;;;;10349234;28;20053;-61
2023/09/19 20:28:24;;;;;;;6.25;2.70;;;;;;;;;;10351879;28;20109;-60
2023/09/19 20:33:25;;;;;;;5.35;3.15;;;;;;;;;;10350210;28;20031;-60
2023/09/19 20:38:27;;;;;;;7.13;3.05;;;;;;;;;;10358492;28;20037;-61
2023/09/19 20:43:30;;;;;;;4.20;2.65;;;;;;;;;;10362982;28;20116;-61
2023/09/19 20:48:31;;;;;;;8.63;2.83;;;;;;;;;;10356900;28;20041;-60
2023/09/19 20:53:32;;;;;;;6.25;2.60;;;;;;;;;;10331624;28;20026;-61
2023/09/19 20:58:39;;;;;;;8.38;3.03;;;;;;;;;;10349216;28;20026;-61
2023/09/19 21:03:43;;;;;;;10.02;3.72;;;;;;;;;;10354319;28;20023;-60
2023/09/19 21:08:43;;;;;;;17.17;4.15;;;;;;;;;;10355679;28;20038;-61
2023/09/19 21:13:48;;;;;;;21.70;4.93;;;;;;;;;;10349886;28;20038;-61
2023/09/19 21:18:49;;;;;;;13.27;4.07;;;;;;;;;;10336459;28;20500;-62
2023/09/19 21:23:50;;;;;;;14.35;4.15;;;;;;;;;;10350005;28;20023;-60
2023/09/19 21:28:50;;;;;;;14.40;4.38;;;;;;;;;;10341267;28;20038;-62
2023/09/19 21:33:51;;;;;;;9.98;3.90;;;;;;;;;;10359465;28;20042;-62
2023/09/19 21:38:54;;;;;;;8.60;4.20;;;;;;;;;;10355140;28;20030;-61
2023/09/19 21:43:54;;;;;;;15.02;4.28;;;;;;;;;;10350569;28;20038;-62
2023/09/19 21:48:55;;;;;;;12.65;4.35;;;;;;;;;;10337032;28;20041;-63
2023/09/19 21:53:57;;;;;;;11.80;4.38;;;;;;;;;;10329683;28;20038;-62
2023/09/19 21:58:58;;;;;;;9.27;3.75;;;;;;;;;;10349892;28;20022;-60
2023/09/19 22:03:59;;;;;;;7.63;4.00;;;;;;;;;;10355903;28;20034;-61
2023/09/19 22:09:00;;;;;;;16.55;4.25;;;;;;;;;;10366299;28;20029;-61
2023/09/19 22:14:00;;;;;;;9.07;4.15;;;;;;;;;;10356468;28;20033;-61
2023/09/19 22:19:01;;;;;;;16.65;4.60;;;;;;;;;;10346023;28;20034;-61
2023/09/19 22:24:02;;;;;;;11.75;4.30;;;;;;;;;;10365759;28;20105;-61
2023/09/19 22:29:03;;;;;;;16.30;4.93;;;;;;;;;;10354416;28;20022;-61
2023/09/19 22:34:12;;;;;;;10.73;4.32;;;;;;;;;;10349025;28;20030;-61
2023/09/19 22:39:25;;;;;;;18.05;4.38;;;;;;;;;;10364592;28;20030;-61
2023/09/19 22:44:25;;;;;;;12.88;3.95;;;;;;;;;;10363791;28;20040;-62
2023/09/19 22:49:26;;;;;;;8.95;4.05;;;;;;;;;;10352373;28;20046;-61
2023/09/19 22:54:27;;;;;;;15.80;4.10;;;;;;;;;;10351344;28;20034;-61
2023/09/19 22:59:29;;;;;;;12.43;3.92;;;;;;;;;;10347618;28;20057;-61
2023/09/19 23:04:30;;;;;;;9.68;3.28;;;;;;;;;;10347050;28;20038;-60
2023/09/19 23:09:34;;;;;;;7.55;3.50;;;;;;;;;;10360088;28;20026;-61
2023/09/19 23:14:38;;;;;;;17.52;4.10;;;;;;;;;;10347267;28;20053;-61
2023/09/19 23:19:47;;;;;;;13.75;4.32;;;;;;;;;;10352339;28;20038;-62
2023/09/19 23:24:51;;;;;;;13.27;4.00;;;;;;;;;;10357873;28;20080;-61
2023/09/19 23:29:54;;;;;;;11.00;3.83;;;;;;;;;;10359653;28;20033;-61
2023/09/19 23:34:57;;;;;;;13.65;3.47;;;;;;;;;;10360862;28;20141;-60
2023/09/19 23:39:57;;;;;;;10.82;3.45;;;;;;;;;;10352759;28;20050;-61
2023/09/19 23:44:58;;;;;;;8.57;3.38;;;;;;;;;;10358440;28;20129;-60
2023/09/19 23:49:58;;;;;;;7.57;3.40;;;;;;;;;;10366785;28;20034;-60
2023/09/19 23:54:59;;;;;;;6.55;2.95;;;;;;;;;;10356486;28;20030;-61
